Budapest, Hungary

11:11 AM CET on February 14, 2016 (GMT +0100)
IBUDAPES25 | | Change Station
CLOSE
Current Station
Personal Weather Station
Location: Budapest, VIII. Jozsefvaros, Budapest
Elevation: 374 ft
Nearby Weather Stations

Elev 374 ft 47.49 °N, 19.07 °E | Updated 22 seconds ago

Scattered Clouds
Scattered Clouds
49.6 °F
Feels Like 49 °F
N
3.5
Wind Variable Wind from SSE
Gusts 3.5 mph

Today
High -- | Low -- °F
--% Chance of Precip.
Yesterday
High -- | Low -- °F
Precip. -- in
Pressure 29.44 in
Visibility 6.2 miles
Clouds Few 1000 ft
Scattered Clouds 3000 ft
Windchill 49 °F
Dew Point 39 °F
Humidity 67%
Rainfall 0.00 in
Snow Depth Not available.
6:52 AM 5:04 PM
Waxing Crescent, 40% visible
METAR LHBP 141000Z 14006KT 110V170 9999 FEW010 SCT030 08/08 Q0997 NOSIG
Pressure 29.44 in
Visibility 6.2 miles
Clouds Few 1000 ft
Scattered Clouds 3000 ft
Windchill 49 °F
Dew Point 39 °F
Humidity 67%
Rainfall 0.00 in
Snow Depth Not available.
6:52 AM 5:04 PM
Waxing Crescent, 40% visible
METAR LHBP 141000Z 14006KT 110V170 9999 FEW010 SCT030 08/08 Q0997 NOSIG

10-Day Weather Forecast

Almanac

Astronomy

Feb. 14, 2016 Rise Set
Actual Time
Civil Twilight
Nautical Twilight
Astronomical Twilight
Moon
Length of Visible Light
Length of Day
Tomorrow will be .
, % of the Moon is Illuminated

Today's Extremes

Country Highs Country Lows

Community

WunderPhotos

Upload Photos

1,892,765 photos uploaded!

WunderBlog® & News

Nearby

Air Quality

  Air Quality AQ Index Pollutant
Not available.

Snow Depth

Station Depth Elevation

Earthquake Activity

City Distance Mag. Time & Date
Minimum magnitude displayed is 2.5.

Coastal Water Temperatures

Place Temperature

Stations

Nearby Weather Stations

Station Location Temp. Windchill Dew Point Humidity Wind Precip. Elev Updated Type